Time;durP1;ratioP1;P1;durP2;ratioP2;P2;SDS_P1;SDS_P2;PMS_P1;PMS_P2;Temp;Humidity;BMP_temperature;BMP_pressure;BME280_temperature;BME280_humidity;BME280_pressure;Samples;Min_cycle;Max_cycle;Signal;HPM_P1;HPM_P2
2022/08/04 00:02:26;;;;;;;11.33;5.23;;;;;;;-146.72;100.00;64895.28;5073838;28;20978;-74
2022/08/04 00:05:31;;;;;;;11.43;5.17;;;;;;;-146.72;100.00;64895.28;5083846;28;20451;-74
2022/08/04 00:08:13;;;;;;;12.30;5.40;;;;;;;-146.72;100.00;64895.28;5030856;28;20507;-74
2022/08/04 00:10:47;;;;;;;6.10;4.67;;;;;;;-146.72;100.00;64895.28;5075960;28;20494;-74
2022/08/04 00:13:16;;;;;;;10.50;5.70;;;;;;;-146.72;100.00;64895.28;5073514;28;20419;-74
2022/08/04 00:15:43;;;;;;;9.83;5.77;;;;;;;-146.72;100.00;64895.28;5090129;28;20435;-74
2022/08/04 00:18:14;;;;;;;10.97;4.97;;;;;;;-146.72;100.00;64895.28;5075313;28;20488;-74
2022/08/04 00:20:41;;;;;;;13.87;6.10;;;;;;;-146.72;100.00;64895.28;5079609;28;20882;-74
2022/08/04 00:23:09;;;;;;;16.60;6.23;;;;;;;-146.72;100.00;64895.28;5074306;28;20460;-74
2022/08/04 00:25:40;;;;;;;18.13;7.33;;;;;;;-146.72;100.00;64895.28;5069161;28;20463;-74
2022/08/04 00:28:07;;;;;;;8.90;6.30;;;;;;;-146.72;100.00;64895.28;5052473;28;20461;-74
2022/08/04 00:30:35;;;;;;;14.70;7.00;;;;;;;-146.72;100.00;64895.28;5060064;28;20517;-74
2022/08/04 00:33:01;;;;;;;28.43;7.83;;;;;;;-146.72;100.00;64895.28;5069543;28;20532;-74
2022/08/04 00:35:28;;;;;;;21.43;6.93;;;;;;;-146.72;100.00;64895.28;5080317;28;20431;-74
2022/08/04 00:37:56;;;;;;;13.73;8.50;;;;;;;-146.72;100.00;64895.28;5085634;28;20482;-74
2022/08/04 00:40:46;;;;;;;23.77;8.10;;;;;;;-146.72;100.00;64895.28;5082284;28;20543;-74
2022/08/04 00:43:34;;;;;;;42.07;8.20;;;;;;;-146.72;100.00;64895.28;5087298;28;20485;-74
2022/08/04 00:46:39;;;;;;;27.70;11.00;;;;;;;-146.72;100.00;64895.28;5087964;28;20440;-74
2022/08/04 00:49:45;;;;;;;18.67;7.23;;;;;;;-146.72;100.00;64895.28;5046239;28;20484;-73
2022/08/04 00:52:40;;;;;;;26.73;7.50;;;;;;;-146.72;100.00;64895.28;5058365;28;20537;-74
2022/08/04 00:55:31;;;;;;;26.80;7.67;;;;;;;-146.72;100.00;64895.28;5071772;28;20413;-74
2022/08/04 00:58:26;;;;;;;18.30;7.67;;;;;;;-146.72;100.00;64895.28;5050345;28;20986;-74
2022/08/04 01:00:58;;;;;;;32.33;7.70;;;;;;;-146.72;100.00;64895.28;5070297;28;20428;-74
2022/08/04 01:03:40;;;;;;;33.33;8.33;;;;;;;-146.72;100.00;64895.28;5056206;28;20418;-74
2022/08/04 01:06:20;;;;;;;21.50;8.10;;;;;;;-146.72;100.00;64895.28;5080220;28;20839;-74
2022/08/04 01:09:23;;;;;;;17.77;7.70;;;;;;;-146.72;100.00;64895.28;5069420;28;20861;-74
2022/08/04 01:11:53;;;;;;;24.67;7.57;;;;;;;-146.72;100.00;64895.28;5085168;28;20486;-74
2022/08/04 01:14:47;;;;;;;20.10;7.83;;;;;;;-146.72;100.00;64895.28;5080814;28;20467;-74
2022/08/04 01:17:14;;;;;;;18.40;7.83;;;;;;;-146.72;100.00;64895.28;5071977;28;20461;-74
2022/08/04 01:19:56;;;;;;;16.40;7.07;;;;;;;-146.72;100.00;64895.28;5082825;28;20424;-74
2022/08/04 01:22:32;;;;;;;31.27;8.30;;;;;;;-146.72;100.00;64895.28;5080354;28;20790;-74
2022/08/04 01:25:36;;;;;;;17.70;6.63;;;;;;;-146.72;100.00;64895.28;5072260;28;20424;-74
2022/08/04 01:28:49;;;;;;;17.07;6.73;;;;;;;-146.72;100.00;64895.28;5070456;28;20448;-74
2022/08/04 01:31:34;;;;;;;16.80;6.87;;;;;;;-146.72;100.00;64895.28;5039064;28;20534;-74
2022/08/04 01:34:04;;;;;;;34.67;9.63;;;;;;;-146.72;100.00;64895.28;5069070;28;20788;-74
2022/08/04 01:36:34;;;;;;;12.93;7.63;;;;;;;-146.72;100.00;64895.28;5069230;28;20456;-74
2022/08/04 01:41:48;;;;;;;20.97;9.37;;;;;;;-146.72;100.00;64895.28;5072870;28;20436;-74
2022/08/04 01:44:27;;;;;;;18.90;6.27;;;;;;;-146.72;100.00;64895.28;5086555;28;20428;-74
2022/08/04 01:46:54;;;;;;;18.40;7.97;;;;;;;-146.72;100.00;64895.28;5084093;28;20467;-74
2022/08/04 01:49:22;;;;;;;27.57;7.10;;;;;;;-146.72;100.00;64895.28;5087936;28;20436;-74
2022/08/04 01:51:51;;;;;;;10.07;7.13;;;;;;;-146.72;100.00;64895.28;5085881;28;20455;-74
2022/08/04 01:54:18;;;;;;;15.43;6.83;;;;;;;-146.72;100.00;64895.28;5073542;28;20467;-74
2022/08/04 01:56:49;;;;;;;15.13;6.67;;;;;;;-146.72;100.00;64895.28;5055975;28;20495;-74
2022/08/04 01:59:20;;;;;;;17.43;6.23;;;;;;;-146.72;100.00;64895.28;5072520;28;20482;-74
2022/08/04 02:01:47;;;;;;;10.53;6.07;;;;;;;-146.72;100.00;64895.28;5086572;28;20859;-74
2022/08/04 02:04:15;;;;;;;11.83;6.40;;;;;;;-146.72;100.00;64895.28;5085783;28;20432;-74
2022/08/04 02:07:01;;;;;;;11.03;6.10;;;;;;;-146.72;100.00;64895.28;5072416;28;20521;-74
2022/08/04 02:09:28;;;;;;;8.53;5.37;;;;;;;-146.72;100.00;64895.28;5084025;28;20430;-74
2022/08/04 02:12:04;;;;;;;9.60;5.67;;;;;;;-146.72;100.00;64895.28;5076613;28;20471;-74
2022/08/04 02:14:58;;;;;;;13.27;6.60;;;;;;;-146.72;100.00;64895.28;5044507;28;20447;-74
2022/08/04 02:17:55;;;;;;;11.77;6.10;;;;;;;-146.72;100.00;64895.28;5062488;28;20472;-74
2022/08/04 02:20:27;;;;;;;11.70;5.50;;;;;;;-146.72;100.00;64895.28;5049362;28;20492;-74
2022/08/04 02:22:59;;;;;;;7.03;4.63;;;;;;;-146.72;100.00;64895.28;5092637;28;20443;-74
2022/08/04 02:25:28;;;;;;;10.67;5.90;;;;;;;-146.72;100.00;64895.28;5085911;28;20838;-74
2022/08/04 02:28:23;;;;;;;9.07;5.57;;;;;;;-146.72;100.00;64895.28;5090878;28;20449;-74
2022/08/04 02:31:11;;;;;;;10.57;5.80;;;;;;;-146.72;100.00;64895.28;5092018;28;20431;-74
2022/08/04 02:33:44;;;;;;;13.67;5.83;;;;;;;-146.72;100.00;64895.28;5083197;28;20524;-74
2022/08/04 02:36:26;;;;;;;7.53;6.43;;;;;;;-146.72;100.00;64895.28;5074923;28;20439;-74
2022/08/04 02:38:53;;;;;;;8.17;6.00;;;;;;;-146.72;100.00;64895.28;5079857;28;20893;-74
2022/08/04 02:41:22;;;;;;;9.93;6.37;;;;;;;-146.72;100.00;64895.28;5094353;28;20424;-74
2022/08/04 02:43:51;;;;;;;21.77;6.90;;;;;;;-146.72;100.00;64895.28;5088071;28;20475;-73
2022/08/04 02:46:20;;;;;;;8.03;5.90;;;;;;;-146.72;100.00;64895.28;5093664;28;20456;-74
2022/08/04 02:48:49;;;;;;;19.93;6.87;;;;;;;-146.72;100.00;64895.28;5081637;28;20429;-74
2022/08/04 02:51:20;;;;;;;6.57;5.80;;;;;;;-146.72;100.00;64895.28;5068106;28;20468;-74
2022/08/04 02:53:52;;;;;;;12.27;5.80;;;;;;;-146.72;100.00;64895.28;5072833;28;20441;-74
2022/08/04 02:56:21;;;;;;;9.23;5.73;;;;;;;-146.72;100.00;64895.28;5093245;28;20440;-74
2022/08/04 02:58:52;;;;;;;10.00;7.03;;;;;;;-146.72;100.00;64895.28;5091026;28;20459;-74
2022/08/04 03:01:21;;;;;;;11.80;7.00;;;;;;;-146.72;100.00;64895.28;5081324;28;20470;-74
2022/08/04 03:04:11;;;;;;;7.13;5.53;;;;;;;-146.72;100.00;64895.28;5071798;28;20627;-74
2022/08/04 03:07:35;;;;;;;6.73;5.10;;;;;;;-146.72;100.00;64895.28;5069109;28;20470;-74
2022/08/04 03:10:20;;;;;;;9.50;5.80;;;;;;;-146.72;100.00;64895.28;5024675;28;20486;-74
2022/08/04 03:13:13;;;;;;;9.87;4.97;;;;;;;-146.72;100.00;64895.28;5082965;28;20863;-74
2022/08/04 03:15:58;;;;;;;8.60;6.37;;;;;;;-146.72;100.00;64895.28;5057990;28;20432;-74
2022/08/04 03:19:02;;;;;;;9.83;5.70;;;;;;;-146.72;100.00;64895.28;5071218;28;20417;-74
2022/08/04 03:21:56;;;;;;;11.73;5.80;;;;;;;-146.72;100.00;64895.28;5086183;28;20416;-74
2022/08/04 03:24:35;;;;;;;14.87;6.13;;;;;;;-146.72;100.00;64895.28;5091523;28;20444;-74
2022/08/04 03:27:30;;;;;;;10.40;5.90;;;;;;;-146.72;100.00;64895.28;5051337;28;20445;-74
2022/08/04 03:30:06;;;;;;;9.03;5.67;;;;;;;-146.72;100.00;64895.28;5044611;28;20992;-74
2022/08/04 03:32:42;;;;;;;11.70;6.37;;;;;;;-146.72;100.00;64895.28;5074141;28;20447;-74
2022/08/04 03:35:45;;;;;;;11.60;6.50;;;;;;;-146.72;100.00;64895.28;5091019;28;20439;-74
2022/08/04 03:38:30;;;;;;;7.03;6.20;;;;;;;-146.72;100.00;64895.28;5047812;28;20537;-74
2022/08/04 03:41:29;;;;;;;5.60;5.20;;;;;;;-146.72;100.00;64895.28;5077023;28;20463;-73
2022/08/04 03:44:35;;;;;;;7.60;6.60;;;;;;;-146.72;100.00;64895.28;5077427;28;20447;-74
2022/08/04 03:47:39;;;;;;;8.40;6.80;;;;;;;-146.72;100.00;64895.28;5078074;28;20452;-74
2022/08/04 03:50:16;;;;;;;9.63;6.00;;;;;;;-146.72;100.00;64895.28;5062030;28;20812;-73
2022/08/04 03:53:08;;;;;;;7.60;6.17;;;;;;;-146.72;100.00;64895.28;5084204;28;20547;-73
2022/08/04 03:55:43;;;;;;;5.97;5.40;;;;;;;-146.72;100.00;64895.28;5070565;28;20490;-74
2022/08/04 03:58:38;;;;;;;7.93;5.30;;;;;;;-146.72;100.00;64895.28;5082341;28;20439;-73
2022/08/04 04:01:11;;;;;;;6.83;6.30;;;;;;;-146.72;100.00;64895.28;5065466;28;20420;-73
2022/08/04 04:03:57;;;;;;;6.60;6.00;;;;;;;-146.72;100.00;64895.28;5091058;28;20416;-73
2022/08/04 04:06:40;;;;;;;10.83;6.73;;;;;;;-146.72;100.00;64895.28;5077181;28;20479;-73
2022/08/04 04:09:19;;;;;;;11.10;6.17;;;;;;;-146.72;100.00;64895.28;5065815;28;20439;-74
2022/08/04 04:12:20;;;;;;;6.13;5.53;;;;;;;-146.72;100.00;64895.28;5077069;28;21149;-74
2022/08/04 04:15:16;;;;;;;8.13;7.30;;;;;;;-146.72;100.00;64895.28;5053574;28;20444;-73
2022/08/04 04:18:18;;;;;;;7.40;6.03;;;;;;;-146.72;100.00;64895.28;5062339;28;20506;-73
2022/08/04 04:21:22;;;;;;;14.40;6.57;;;;;;;-146.72;100.00;64895.28;4998280;28;20486;-74
2022/08/04 04:24:11;;;;;;;10.00;6.97;;;;;;;-146.72;100.00;64895.28;5033461;28;20456;-74
2022/08/04 04:26:59;;;;;;;11.47;6.40;;;;;;;-146.72;100.00;64895.28;5079860;28;20529;-74
2022/08/04 04:29:51;;;;;;;8.17;7.03;;;;;;;-146.72;100.00;64895.28;5083555;28;20435;-74
2022/08/04 04:32:23;;;;;;;8.00;7.07;;;;;;;-146.72;100.00;64895.28;5071109;28;20448;-74
2022/08/04 04:35:19;;;;;;;10.40;6.87;;;;;;;-146.72;100.00;64895.28;5083420;28;20455;-74
2022/08/04 04:38:13;;;;;;;8.47;7.10;;;;;;;-146.72;100.00;64895.28;5070929;28;20444;-74
2022/08/04 04:41:17;;;;;;;7.93;6.07;;;;;;;-146.72;100.00;64895.28;5071113;28;20425;-74
2022/08/04 04:44:18;;;;;;;8.30;7.60;;;;;;;-146.72;100.00;64895.28;5078173;28;20478;-74
2022/08/04 04:46:59;;;;;;;9.80;7.00;;;;;;;-146.72;100.00;64895.28;5070922;28;20485;-74
2022/08/04 04:49:36;;;;;;;10.43;6.97;;;;;;;-146.72;100.00;64895.28;5089893;28;20978;-74
2022/08/04 04:52:26;;;;;;;17.67;7.60;;;;;;;-146.72;100.00;64895.28;5076311;28;20517;-74
2022/08/04 04:54:58;;;;;;;7.90;7.10;;;;;;;-146.72;100.00;64895.28;5070162;28;20477;-74
2022/08/04 04:57:30;;;;;;;12.10;7.93;;;;;;;-146.72;100.00;64895.28;5072055;28;20452;-74
2022/08/04 05:00:18;;;;;;;8.20;5.60;;;;;;;-146.72;100.00;64895.28;5084266;28;20792;-74
2022/08/04 05:03:17;;;;;;;13.13;7.20;;;;;;;-146.72;100.00;64895.28;5052928;28;20437;-74
2022/08/04 05:06:18;;;;;;;13.53;6.93;;;;;;;-146.72;100.00;64895.28;5069520;28;20519;-73
2022/08/04 05:09:17;;;;;;;10.80;6.90;;;;;;;-146.72;100.00;64895.28;5087033;28;20432;-73
2022/08/04 05:11:59;;;;;;;15.67;8.20;;;;;;;-146.72;100.00;64895.28;5044106;28;20524;-74
2022/08/04 05:14:36;;;;;;;16.97;6.97;;;;;;;-146.72;100.00;64895.28;5073528;28;20880;-74
2022/08/04 05:17:39;;;;;;;14.40;8.40;;;;;;;-146.72;100.00;64895.28;5090147;28;20521;-74
2022/08/04 05:20:11;;;;;;;9.60;6.33;;;;;;;-146.72;100.00;64895.28;5077365;28;20432;-74
2022/08/04 05:22:58;;;;;;;7.50;6.23;;;;;;;-146.72;100.00;64895.28;5093477;28;20825;-74
2022/08/04 05:25:31;;;;;;;8.27;7.07;;;;;;;-146.72;100.00;64895.28;5062270;28;20460;-74
2022/08/04 05:28:06;;;;;;;10.80;7.83;;;;;;;-146.72;100.00;64895.28;5056280;28;20452;-74
2022/08/04 05:30:37;;;;;;;12.60;7.10;;;;;;;-146.72;100.00;64895.28;5090522;28;20454;-73
2022/08/04 05:33:09;;;;;;;10.57;7.27;;;;;;;-146.72;100.00;64895.28;5074249;28;21360;-73
2022/08/04 05:35:44;;;;;;;11.50;6.80;;;;;;;-146.72;100.00;64895.28;5080653;28;20419;-73
2022/08/04 05:38:39;;;;;;;8.57;7.03;;;;;;;-146.72;100.00;64895.28;5093365;28;20445;-73
2022/08/04 05:41:08;;;;;;;6.93;6.23;;;;;;;-146.72;100.00;64895.28;5059317;28;20424;-73
2022/08/04 05:43:42;;;;;;;14.63;7.40;;;;;;;-146.72;100.00;64895.28;5056405;28;20436;-73
2022/08/04 05:46:10;;;;;;;8.00;6.67;;;;;;;-146.72;100.00;64895.28;5072804;28;20471;-73
2022/08/04 05:48:39;;;;;;;7.03;6.40;;;;;;;-146.72;100.00;64895.28;5072594;28;20471;-73
2022/08/04 05:51:09;;;;;;;10.90;6.47;;;;;;;-146.72;100.00;64895.28;5056129;28;20472;-73
2022/08/04 05:53:38;;;;;;;7.43;5.60;;;;;;;-146.72;100.00;64895.28;5055889;28;20559;-73
2022/08/04 05:56:05;;;;;;;11.20;6.10;;;;;;;-146.72;100.00;64895.28;5042811;28;20444;-73
2022/08/04 05:58:34;;;;;;;9.73;5.43;;;;;;;-146.72;100.00;64895.28;5086147;28;20447;-73
2022/08/04 06:01:02;;;;;;;6.63;6.03;;;;;;;-146.72;100.00;64895.28;5080182;28;20423;-73
2022/08/04 06:03:30;;;;;;;8.20;6.30;;;;;;;-146.72;100.00;64895.28;5077944;28;20425;-74
2022/08/04 06:05:58;;;;;;;5.77;5.10;;;;;;;-146.72;100.00;64895.28;5081793;28;20899;-74
2022/08/04 06:08:25;;;;;;;5.27;4.87;;;;;;;-146.72;100.00;64895.28;5080365;28;20435;-73
2022/08/04 06:10:56;;;;;;;4.60;4.30;;;;;;;-146.72;100.00;64895.28;5083946;28;20424;-74
2022/08/04 06:13:29;;;;;;;4.90;4.50;;;;;;;-146.72;100.00;64895.28;5073421;28;20464;-74
2022/08/04 06:16:18;;;;;;;5.27;4.77;;;;;;;-146.72;100.00;64895.28;5058019;28;20452;-74
2022/08/04 06:19:02;;;;;;;5.83;5.10;;;;;;;-146.72;100.00;64895.28;5068329;28;20424;-74
2022/08/04 06:21:52;;;;;;;4.97;4.57;;;;;;;-146.72;100.00;64895.28;5079940;28;20531;-74
2022/08/04 06:24:23;;;;;;;5.10;4.70;;;;;;;-146.72;100.00;64895.28;5062609;28;21025;-74
2022/08/04 06:26:51;;;;;;;5.30;4.80;;;;;;;-146.72;100.00;64895.28;5085274;28;20452;-74
2022/08/04 06:29:26;;;;;;;4.70;4.33;;;;;;;-146.72;100.00;64895.28;5072097;28;20919;-73
2022/08/04 06:31:57;;;;;;;4.83;4.43;;;;;;;-146.72;100.00;64895.28;5051883;28;20528;-74
2022/08/04 06:34:45;;;;;;;4.70;4.27;;;;;;;-146.72;100.00;64895.28;5063996;28;20443;-74
2022/08/04 06:37:12;;;;;;;5.70;4.03;;;;;;;-146.72;100.00;64895.28;5071691;28;20990;-73
2022/08/04 06:40:01;;;;;;;4.60;4.20;;;;;;;-146.72;100.00;64895.28;5057859;28;20515;-73
2022/08/04 06:42:49;;;;;;;5.70;3.60;;;;;;;-146.72;100.00;64895.28;5091188;28;20412;-74
2022/08/04 06:45:19;;;;;;;6.67;3.93;;;;;;;-146.72;100.00;64895.28;5091709;28;20455;-74
2022/08/04 06:47:46;;;;;;;4.00;3.60;;;;;;;-146.72;100.00;64895.28;5091834;28;20451;-73
2022/08/04 06:50:15;;;;;;;4.27;3.90;;;;;;;-146.72;100.00;64895.28;5093114;28;20445;-73
2022/08/04 06:53:02;;;;;;;4.00;3.40;;;;;;;-146.72;100.00;64895.28;5083149;28;20570;-72
2022/08/04 06:55:32;;;;;;;3.90;3.60;;;;;;;-146.72;100.00;64895.28;5071182;28;20943;-72
2022/08/04 06:58:00;;;;;;;3.40;3.03;;;;;;;-146.72;100.00;64895.28;5080696;28;20458;-74
2022/08/04 07:00:30;;;;;;;3.20;2.73;;;;;;;-146.72;100.00;64895.28;5061443;28;20519;-72
2022/08/04 07:02:58;;;;;;;3.67;3.37;;;;;;;-146.72;100.00;64895.28;5080894;28;20448;-72
2022/08/04 07:05:25;;;;;;;5.53;3.40;;;;;;;-146.72;100.00;64895.28;5074983;28;20477;-72
2022/08/04 07:07:53;;;;;;;3.60;3.30;;;;;;;-146.72;100.00;64895.28;5081068;28;20459;-72
2022/08/04 07:10:28;;;;;;;6.20;3.20;;;;;;;-146.72;100.00;64895.28;5076292;28;20439;-72
2022/08/04 07:12:56;;;;;;;6.70;2.73;;;;;;;-146.72;100.00;64895.28;5079340;28;20468;-72
2022/08/04 07:15:24;;;;;;;2.97;2.70;;;;;;;-146.72;100.00;64895.28;5091235;28;20968;-72
2022/08/04 07:17:52;;;;;;;3.00;2.53;;;;;;;-146.72;100.00;64895.28;5078958;28;20943;-72
2022/08/04 07:20:20;;;;;;;5.03;3.97;;;;;;;-146.72;100.00;64895.28;5090975;28;20434;-72
2022/08/04 07:23:03;;;;;;;4.60;3.10;;;;;;;-146.72;100.00;64895.28;5060917;28;20445;-72
2022/08/04 07:25:30;;;;;;;3.87;3.50;;;;;;;-146.72;100.00;64895.28;5087705;28;20425;-72
2022/08/04 07:28:18;;;;;;;6.73;3.10;;;;;;;-146.72;100.00;64895.28;5061882;28;20447;-72
2022/08/04 07:30:47;;;;;;;3.80;3.50;;;;;;;-146.72;100.00;64895.28;5062059;28;21302;-72
2022/08/04 07:33:16;;;;;;;4.30;2.97;;;;;;;-146.72;100.00;64895.28;5053908;28;21003;-73
2022/08/04 07:35:44;;;;;;;5.20;3.10;;;;;;;-146.72;100.00;64895.28;5052338;28;20433;-74
2022/08/04 07:38:32;;;;;;;4.67;3.33;;;;;;;-146.72;100.00;64895.28;5036964;28;20437;-74
2022/08/04 07:41:04;;;;;;;3.70;3.50;;;;;;;-146.72;100.00;64895.28;5052058;28;20406;-74
2022/08/04 07:43:53;;;;;;;5.90;5.00;;;;;;;-146.72;100.00;64895.28;5050308;28;20424;-74
2022/08/04 07:46:20;;;;;;;5.60;3.47;;;;;;;-146.72;100.00;64895.28;5066850;28;20516;-74
2022/08/04 07:48:47;;;;;;;3.13;2.90;;;;;;;-146.72;100.00;64895.28;5050350;28;20433;-75
2022/08/04 07:51:15;;;;;;;3.27;2.97;;;;;;;-146.72;100.00;64895.28;5050171;28;21015;-75
2022/08/04 07:53:44;;;;;;;3.67;2.83;;;;;;;-146.72;100.00;64895.28;5064052;28;20510;-74
2022/08/04 07:56:21;;;;;;;3.57;3.20;;;;;;;-146.72;100.00;64895.28;5070014;28;20809;-75
2022/08/04 07:58:47;;;;;;;3.23;3.03;;;;;;;-146.72;100.00;64895.28;5053378;28;20490;-74
2022/08/04 08:01:16;;;;;;;4.13;3.70;;;;;;;-146.72;100.00;64895.28;5071355;28;20524;-74
2022/08/04 08:03:43;;;;;;;5.80;3.20;;;;;;;-146.72;100.00;64895.28;5075072;28;20466;-75
2022/08/04 08:06:10;;;;;;;3.40;3.10;;;;;;;-146.72;100.00;64895.28;5090076;28;20454;-74
2022/08/04 08:08:59;;;;;;;10.87;3.10;;;;;;;-146.72;100.00;64895.28;5077993;28;20423;-74
2022/08/04 08:11:43;;;;;;;3.57;3.23;;;;;;;-146.72;100.00;64895.28;5091562;28;20775;-74
2022/08/04 08:14:30;;;;;;;3.70;3.50;;;;;;;-146.72;100.00;64895.28;5090042;28;20483;-74
2022/08/04 08:16:58;;;;;;;3.80;3.50;;;;;;;-146.72;100.00;64895.28;5085417;28;20452;-75
2022/08/04 08:19:25;;;;;;;3.20;2.90;;;;;;;-146.72;100.00;64895.28;5053619;28;20435;-75
2022/08/04 08:21:53;;;;;;;3.40;3.20;;;;;;;-146.72;100.00;64895.28;5091580;28;20440;-74
2022/08/04 08:24:27;;;;;;;4.07;3.73;;;;;;;-146.72;100.00;64895.28;5074202;28;20424;-75
2022/08/04 08:26:55;;;;;;;3.63;3.43;;;;;;;-146.72;100.00;64895.28;5071634;28;20488;-75
2022/08/04 08:29:23;;;;;;;3.87;3.50;;;;;;;-146.72;100.00;64895.28;5070477;28;20799;-74
2022/08/04 08:31:50;;;;;;;9.83;3.70;;;;;;;-146.72;100.00;64895.28;5053803;28;20460;-75
2022/08/04 08:34:27;;;;;;;2.90;2.70;;;;;;;-146.72;100.00;64895.28;5071444;28;20452;-75
2022/08/04 08:37:03;;;;;;;4.17;3.30;;;;;;;-146.72;100.00;64895.28;5053923;28;20490;-74
2022/08/04 08:39:38;;;;;;;3.37;3.13;;;;;;;-146.72;100.00;64895.28;5074647;28;20440;-75
2022/08/04 08:42:32;;;;;;;3.30;3.10;;;;;;;-146.72;100.00;64895.28;5081505;28;20522;-74
2022/08/04 08:45:37;;;;;;;3.03;2.80;;;;;;;-146.72;100.00;64895.28;5051276;28;20440;-74
2022/08/04 08:48:26;;;;;;;3.60;3.30;;;;;;;-146.72;100.00;64895.28;5055220;28;20435;-75
2022/08/04 08:51:15;;;;;;;4.00;3.40;;;;;;;-146.72;100.00;64895.28;5057905;28;20861;-75
2022/08/04 08:54:28;;;;;;;4.57;3.30;;;;;;;-146.72;100.00;64895.28;5058891;28;20467;-75
2022/08/04 08:57:13;;;;;;;4.50;3.07;;;;;;;-146.72;100.00;64895.28;5036314;28;20519;-75
2022/08/04 09:00:05;;;;;;;5.47;2.63;;;;;;;-146.72;100.00;64895.28;5070171;28;20473;-75
2022/08/04 09:02:53;;;;;;;4.43;3.50;;;;;;;-146.72;100.00;64895.28;5083240;28;20436;-75
2022/08/04 09:05:33;;;;;;;5.13;3.27;;;;;;;-146.72;100.00;64895.28;5092501;28;20434;-75
2022/08/04 09:08:41;;;;;;;2.87;2.67;;;;;;;-146.72;100.00;64895.28;5088120;28;20455;-74
2022/08/04 09:11:17;;;;;;;5.00;2.70;;;;;;;-146.72;100.00;64895.28;5030689;28;20927;-74
2022/08/04 09:14:13;;;;;;;2.90;2.70;;;;;;;-146.72;100.00;64895.28;5072321;28;20528;-75
2022/08/04 09:16:47;;;;;;;2.87;2.53;;;;;;;-146.72;100.00;64895.28;5091567;28;20895;-74
2022/08/04 09:19:38;;;;;;;3.93;3.40;;;;;;;-146.72;100.00;64895.28;5078085;28;20494;-74
2022/08/04 09:22:13;;;;;;;4.10;3.10;;;;;;;-146.72;100.00;64895.28;5056595;28;20946;-75
2022/08/04 09:25:06;;;;;;;2.90;2.70;;;;;;;-146.72;100.00;64895.28;5086068;28;20452;-74
2022/08/04 09:27:51;;;;;;;3.53;3.03;;;;;;;-146.72;100.00;64895.28;5076349;28;20452;-75
2022/08/04 09:30:51;;;;;;;5.17;2.40;;;;;;;-146.72;100.00;64895.28;5072963;28;20545;-75
2022/08/04 09:33:26;;;;;;;2.87;2.67;;;;;;;-146.72;100.00;64895.28;5059089;28;20459;-75
2022/08/04 09:36:33;;;;;;;2.27;2.17;;;;;;;-146.72;100.00;64895.28;5082749;28;20441;-75
2022/08/04 09:39:08;;;;;;;4.40;2.90;;;;;;;-146.72;100.00;64895.28;5066570;28;20477;-75
2022/08/04 09:41:39;;;;;;;3.30;3.00;;;;;;;-146.72;100.00;64895.28;5064273;28;20932;-75
2022/08/04 09:44:32;;;;;;;2.40;2.20;;;;;;;-146.72;100.00;64895.28;5080819;28;20425;-75
2022/08/04 09:47:39;;;;;;;3.10;2.80;;;;;;;-146.72;100.00;64895.28;5083382;28;20448;-75
2022/08/04 09:50:19;;;;;;;8.77;2.60;;;;;;;-146.72;100.00;64895.28;5087842;28;20419;-75
2022/08/04 09:52:51;;;;;;;2.70;2.50;;;;;;;-146.72;100.00;64895.28;5096450;28;20960;-75
2022/08/04 09:55:27;;;;;;;2.63;2.43;;;;;;;-146.72;100.00;64895.28;5079980;28;20430;-75
2022/08/04 09:58:08;;;;;;;3.30;3.10;;;;;;;-146.72;100.00;64895.28;5085732;28;20791;-75
2022/08/04 10:00:52;;;;;;;3.20;2.90;;;;;;;-146.72;100.00;64895.28;5090152;28;20431;-76
2022/08/04 10:03:24;;;;;;;2.90;2.70;;;;;;;-146.72;100.00;64895.28;5086142;28;20456;-75
2022/08/04 10:06:07;;;;;;;2.73;2.53;;;;;;;-146.72;100.00;64895.28;5054008;28;20410;-75
2022/08/04 10:08:55;;;;;;;3.20;3.00;;;;;;;-146.72;100.00;64895.28;5086730;28;20485;-75
2022/08/04 10:11:47;;;;;;;3.50;3.30;;;;;;;-146.72;100.00;64895.28;5082094;28;20431;-75
2022/08/04 10:14:39;;;;;;;3.93;2.73;;;;;;;-146.72;100.00;64895.28;5053529;28;20493;-75
2022/08/04 10:17:14;;;;;;;3.07;2.80;;;;;;;-146.72;100.00;64895.28;5065748;28;20873;-75
2022/08/04 10:19:41;;;;;;;3.33;2.60;;;;;;;-146.72;100.00;64895.28;5093525;28;20483;-75
2022/08/04 10:22:19;;;;;;;3.07;2.87;;;;;;;-146.72;100.00;64895.28;5086592;28;20835;-75
2022/08/04 10:25:23;;;;;;;3.53;3.20;;;;;;;-146.72;100.00;64895.28;5087541;28;20507;-75
2022/08/04 10:28:14;;;;;;;3.37;3.17;;;;;;;-146.72;100.00;64895.28;5076521;28;20853;-75
2022/08/04 10:30:50;;;;;;;3.30;3.07;;;;;;;-146.72;100.00;64895.28;5064735;28;20432;-75
2022/08/04 10:33:24;;;;;;;3.67;3.20;;;;;;;-146.72;100.00;64895.28;5075058;28;20456;-75
2022/08/04 10:35:59;;;;;;;3.30;2.90;;;;;;;-146.72;100.00;64895.28;5092322;28;20883;-75
2022/08/04 10:38:28;;;;;;;2.50;2.30;;;;;;;-146.72;100.00;64895.28;5063720;28;20441;-75
2022/08/04 10:41:05;;;;;;;2.90;2.70;;;;;;;-146.72;100.00;64895.28;5061928;28;21134;-75
2022/08/04 10:43:35;;;;;;;2.93;2.73;;;;;;;-146.72;100.00;64895.28;5082526;28;20480;-75
2022/08/04 10:46:11;;;;;;;3.13;2.93;;;;;;;-146.72;100.00;64895.28;5071767;28;21194;-75
2022/08/04 10:48:41;;;;;;;6.37;3.20;;;;;;;-146.72;100.00;64895.28;5073453;28;20480;-75
2022/08/04 10:51:30;;;;;;;3.03;2.83;;;;;;;-146.72;100.00;64895.28;5069232;28;20962;-75
2022/08/04 10:54:25;;;;;;;2.90;2.70;;;;;;;-146.72;100.00;64895.28;5076747;28;21022;-75
2022/08/04 10:56:58;;;;;;;2.90;2.70;;;;;;;-146.72;100.00;64895.28;5063054;28;20464;-75
2022/08/04 10:59:46;;;;;;;3.30;3.00;;;;;;;-146.72;100.00;64895.28;5085716;28;20424;-75
2022/08/04 11:02:50;;;;;;;3.73;2.67;;;;;;;-146.72;100.00;64895.28;5086819;28;20422;-75
2022/08/04 11:05:20;;;;;;;3.40;3.00;;;;;;;-146.72;100.00;64895.28;5072964;28;20428;-75
2022/08/04 11:07:51;;;;;;;5.60;2.57;;;;;;;-146.72;100.00;64895.28;5066710;28;20472;-75
2022/08/04 11:10:23;;;;;;;3.10;2.90;;;;;;;-146.72;100.00;64895.28;5071103;28;20440;-75
2022/08/04 11:12:56;;;;;;;4.80;3.23;;;;;;;-146.72;100.00;64895.28;5064983;28;20441;-75
2022/08/04 11:15:37;;;;;;;3.50;3.20;;;;;;;-146.72;100.00;64895.28;5061461;28;20487;-75
2022/08/04 11:18:12;;;;;;;3.20;2.70;;;;;;;-146.72;100.00;64895.28;5091759;28;20978;-75
2022/08/04 11:20:54;;;;;;;2.43;2.33;;;;;;;-146.72;100.00;64895.28;5066923;28;20438;-75
2022/08/04 11:23:27;;;;;;;2.90;2.70;;;;;;;-146.72;100.00;64895.28;5059368;28;20435;-75
2022/08/04 11:26:14;;;;;;;2.90;2.70;;;;;;;-146.72;100.00;64895.28;5072437;28;20833;-75
2022/08/04 11:29:04;;;;;;;2.83;2.63;;;;;;;-146.72;100.00;64895.28;5042862;28;20517;-75
2022/08/04 11:31:34;;;;;;;3.20;3.00;;;;;;;-146.72;100.00;64895.28;5072357;28;20431;-75
2022/08/04 11:34:14;;;;;;;3.50;3.20;;;;;;;-146.72;100.00;64895.28;5050219;28;20994;-75
2022/08/04 11:37:09;;;;;;;2.70;2.50;;;;;;;-146.72;100.00;64895.28;5059925;28;20455;-75
2022/08/04 11:39:51;;;;;;;4.13;2.60;;;;;;;-146.72;100.00;64895.28;5069007;28;20431;-75
2022/08/04 11:42:23;;;;;;;3.40;3.10;;;;;;;-146.72;100.00;64895.28;5084860;28;20847;-75
2022/08/04 11:45:10;;;;;;;2.83;2.63;;;;;;;-146.72;100.00;64895.28;5092382;28;20419;-74
2022/08/04 11:48:03;;;;;;;7.23;3.13;;;;;;;-146.72;100.00;64895.28;5087559;28;20549;-76
2022/08/04 11:50:40;;;;;;;8.07;4.27;;;;;;;-146.72;100.00;64895.28;5070748;28;20525;-76
2022/08/04 11:53:09;;;;;;;3.50;3.20;;;;;;;-146.72;100.00;64895.28;5054382;28;20473;-76
2022/08/04 11:55:37;;;;;;;3.27;2.97;;;;;;;-146.72;100.00;64895.28;5059829;28;20440;-76
2022/08/04 11:58:24;;;;;;;3.27;3.00;;;;;;;-146.72;100.00;64895.28;5064688;28;20438;-76
2022/08/04 12:01:16;;;;;;;2.83;2.43;;;;;;;-146.72;100.00;64895.28;5089705;28;20443;-75
2022/08/04 12:03:48;;;;;;;5.00;3.10;;;;;;;-146.72;100.00;64895.28;5074254;28;20443;-75
2022/08/04 12:06:34;;;;;;;2.70;2.47;;;;;;;-146.72;100.00;64895.28;5043848;28;20568;-75
2022/08/04 12:09:45;;;;;;;7.10;3.03;;;;;;;-146.72;100.00;64895.28;5082946;28;20494;-75